createdAt,value
2023-01-23T00:00:11.581Z,101307.78
2023-01-23T00:02:42.225Z,101315.69
2023-01-23T00:05:13.790Z,101311.22
2023-01-23T00:07:44.425Z,101314.38
2023-01-23T00:10:15.875Z,101307.63
2023-01-23T00:12:49.473Z,101321.63
2023-01-23T00:15:20.176Z,101325.56
2023-01-23T00:17:50.373Z,101329.53
2023-01-23T00:20:23.119Z,101330.69
2023-01-23T00:22:53.829Z,101331.81
2023-01-23T00:25:24.567Z,101326.22
2023-01-23T00:27:57.240Z,101322.28
2023-01-23T00:30:27.821Z,101326.56
2023-01-23T00:32:58.289Z,101325.72
2023-01-23T00:35:28.582Z,101325.25
2023-01-23T00:37:59.516Z,101326.72
2023-01-23T00:40:30.649Z,101327.06
2023-01-23T00:43:03.636Z,101327.91
2023-01-23T00:45:34.224Z,101324.63
2023-01-23T00:48:04.912Z,101321.47
2023-01-23T00:50:35.385Z,101330.72
2023-01-23T00:53:06.071Z,101330.22
2023-01-23T00:55:36.610Z,101333.50
2023-01-23T00:58:09.093Z,101330.38
2023-01-23T01:00:41.195Z,101331.50
2023-01-23T01:03:11.915Z,101331.50
2023-01-23T01:05:42.955Z,101335.97
2023-01-23T01:08:13.561Z,101329.22
2023-01-23T01:10:44.058Z,101322.78
2023-01-23T01:13:20.087Z,101325.56
2023-01-23T01:15:51.621Z,101323.63
2023-01-23T01:18:24.175Z,101318.00
2023-01-23T01:20:54.979Z,101320.31
2023-01-23T01:23:26.175Z,101314.72
2023-01-23T01:26:01.594Z,101315.88
2023-01-23T01:28:41.063Z,101313.72
2023-01-23T01:31:17.030Z,101313.56
2023-01-23T01:33:48.764Z,101314.25
2023-01-23T01:36:21.223Z,101321.66
2023-01-23T01:38:51.899Z,101327.09
2023-01-23T01:41:23.190Z,101332.19
2023-01-23T01:43:57.828Z,101334.50
2023-01-23T01:46:31.081Z,101338.44
2023-01-23T01:49:13.767Z,101343.56
2023-01-23T01:51:51.067Z,101341.91
2023-01-23T01:54:29.397Z,101341.91
2023-01-23T01:57:11.730Z,101349.16
2023-01-23T01:59:52.778Z,101348.81
2023-01-23T02:02:29.905Z,101352.44
2023-01-23T02:05:07.200Z,101341.72
2023-01-23T02:07:44.055Z,101355.72
2023-01-23T02:10:17.300Z,101348.97
2023-01-23T02:12:50.005Z,101348.16
2023-01-23T02:15:25.246Z,101354.56
2023-01-23T02:17:56.948Z,101352.59
2023-01-23T02:20:30.312Z,101343.03
2023-01-23T02:23:15.126Z,101356.22
2023-01-23T02:25:58.072Z,101353.44
2023-01-23T02:28:42.251Z,101359.84
2023-01-23T02:31:14.230Z,101356.22
2023-01-23T02:33:54.638Z,101356.22
2023-01-23T02:36:28.950Z,101359.03
2023-01-23T02:39:13.729Z,101354.56
2023-01-23T02:41:48.492Z,101365.44
2023-01-23T02:44:27.768Z,101365.75
2023-01-23T02:47:00.762Z,101353.75
2023-01-23T02:49:31.884Z,101367.25
2023-01-23T02:52:03.926Z,101362.47
2023-01-23T02:54:34.706Z,101370.84
2023-01-23T02:57:07.147Z,101372.84
2023-01-23T02:59:54.265Z,101374.50
2023-01-23T03:02:24.791Z,101374.81
2023-01-23T03:04:54.763Z,101375.66
2023-01-23T03:07:25.434Z,101370.06
2023-01-23T03:09:55.714Z,101370.84
2023-01-23T03:12:28.083Z,101372.84
2023-01-23T03:14:59.415Z,101366.41
2023-01-23T03:17:30.726Z,101372.00
2023-01-23T03:20:02.494Z,101363.97
2023-01-23T03:22:48.288Z,101367.56
2023-01-23T03:25:22.127Z,101364.28
2023-01-23T03:27:54.431Z,101375.78
2023-01-23T03:30:23.406Z,101369.38
2023-01-23T03:32:55.135Z,101372.19
2023-01-23T03:35:25.938Z,101374.16
2023-01-23T03:37:56.261Z,101378.09
2023-01-23T03:40:44.980Z,101372.19
2023-01-23T03:43:16.370Z,101378.44
2023-01-23T03:45:47.324Z,101373.69
2023-01-23T03:48:17.277Z,101372.03
2023-01-23T03:50:48.547Z,101374.81
2023-01-23T03:53:27.940Z,101377.63
2023-01-23T03:55:57.949Z,101384.38
2023-01-23T03:58:31.369Z,101381.56
2023-01-23T04:01:03.969Z,101382.38
2023-01-23T04:03:33.978Z,101386.00
2023-01-23T04:06:04.632Z,101387.16
2023-01-23T04:08:35.558Z,101388.66
2023-01-23T04:11:08.377Z,101388.66
2023-01-23T04:13:41.763Z,101388.94
2023-01-23T04:16:12.263Z,101377.75
2023-01-23T04:18:42.653Z,101390.09
2023-01-23T04:21:13.586Z,101392.09
2023-01-23T04:23:44.320Z,101400.47
2023-01-23T04:26:15.542Z,101392.09
2023-01-23T04:28:47.928Z,101401.63
2023-01-23T04:31:18.795Z,101396.84
2023-01-23T04:33:49.731Z,101395.22
2023-01-23T04:36:20.614Z,101392.44
2023-01-23T04:38:50.857Z,101395.22
2023-01-23T04:41:25.142Z,101393.25
2023-01-23T04:43:56.910Z,101389.63
2023-01-23T04:46:28.161Z,101405.56
2023-01-23T04:48:58.580Z,101409.22
2023-01-23T04:51:28.846Z,101398.03
2023-01-23T04:53:58.845Z,101398.31
2023-01-23T04:56:29.586Z,101392.72
2023-01-23T04:59:01.574Z,101396.69
2023-01-23T05:01:31.744Z,101407.06
2023-01-23T05:04:02.378Z,101402.63
2023-01-23T05:06:33.296Z,101409.00
2023-01-23T05:09:03.969Z,101409.00
2023-01-23T05:11:34.616Z,101412.31
2023-01-23T05:14:07.453Z,101418.75
2023-01-23T05:16:37.717Z,101422.03
2023-01-23T05:19:08.275Z,101421.38
2023-01-23T05:21:39.134Z,101424.84
2023-01-23T05:24:11.185Z,101424.69
2023-01-23T05:26:41.965Z,101427.81
2023-01-23T05:29:14.640Z,101422.22
2023-01-23T05:31:48.106Z,101425.88
2023-01-23T05:34:21.599Z,101425.03
2023-01-23T05:36:51.636Z,101428.66
2023-01-23T05:39:22.622Z,101425.38
2023-01-23T05:41:53.042Z,101435.25
2023-01-23T05:44:25.936Z,101437.91
2023-01-23T05:46:56.908Z,101450.09
2023-01-23T05:49:28.134Z,101450.25
2023-01-23T05:51:58.280Z,101453.88
2023-01-23T05:54:29.088Z,101460.28
2023-01-23T05:57:02.456Z,101461.13
2023-01-23T05:59:34.913Z,101463.25
2023-01-23T06:02:05.867Z,101452.19
2023-01-23T06:04:36.707Z,101465.25
2023-01-23T06:07:07.631Z,101465.56
2023-01-23T06:09:39.191Z,101474.09
2023-01-23T06:12:11.374Z,101472.91
2023-01-23T06:14:43.246Z,101466.59
2023-01-23T06:17:15.012Z,101467.16
2023-01-23T06:19:46.328Z,101469.50
2023-01-23T06:22:16.805Z,101470.22
2023-01-23T06:24:47.104Z,101482.41
2023-01-23T06:27:18.011Z,101472.47
2023-01-23T06:29:51.108Z,101463.03
2023-01-23T06:32:21.306Z,101471.03
2023-01-23T06:34:52.469Z,101478.75
2023-01-23T06:37:22.413Z,101480.34
2023-01-23T06:39:52.491Z,101480.69
2023-01-23T06:42:22.659Z,101484.22
2023-01-23T06:45:03.050Z,101487.06
2023-01-23T06:47:33.118Z,101490.53
2023-01-23T06:50:03.414Z,101488.72
2023-01-23T06:52:34.662Z,101499.03
2023-01-23T06:55:05.550Z,101492.75
2023-01-23T06:57:36.666Z,101498.53
2023-01-23T07:00:10.501Z,101496.19
2023-01-23T07:02:44.067Z,101496.31
2023-01-23T07:05:15.626Z,101500.88
2023-01-23T07:07:45.800Z,101495.72
2023-01-23T07:10:26.741Z,101494.59
2023-01-23T07:13:00.448Z,101490.56
2023-01-23T07:15:32.049Z,101497.06
2023-01-23T07:18:05.633Z,101501.97
2023-01-23T07:20:39.031Z,101489.03
2023-01-23T07:23:10.167Z,101492.69
2023-01-23T07:25:40.811Z,101484.56
2023-01-23T07:28:11.113Z,101494.97
2023-01-23T07:30:42.933Z,101491.19
2023-01-23T07:33:15.624Z,101492.75
2023-01-23T07:35:45.770Z,101501.88
2023-01-23T07:38:15.756Z,101500.44
2023-01-23T07:40:47.099Z,101491.28
2023-01-23T07:43:20.024Z,101495.91
2023-01-23T07:45:51.980Z,101496.94
2023-01-23T07:48:38.089Z,101498.72
2023-01-23T07:51:10.928Z,101499.28
2023-01-23T07:56:24.658Z,101485.03
2023-01-23T07:58:57.413Z,101481.50
2023-01-23T08:01:30.736Z,101477.63
2023-01-23T08:04:01.619Z,101486.28
2023-01-23T08:06:40.797Z,101479.94
2023-01-23T08:09:11.012Z,101477.59
2023-01-23T08:11:42.728Z,101476.06
2023-01-23T08:14:16.910Z,101475.38
2023-01-23T08:16:55.241Z,101468.94
2023-01-23T08:19:28.477Z,101472.63
2023-01-23T08:21:58.653Z,101474.72
2023-01-23T08:24:30.086Z,101470.75
2023-01-23T08:27:00.651Z,101474.09
2023-01-23T08:29:31.735Z,101464.00
2023-01-23T08:32:06.507Z,101466.84
2023-01-23T08:34:37.659Z,101462.81
2023-01-23T08:37:07.835Z,101460.84
2023-01-23T08:39:37.966Z,101455.19
2023-01-23T08:42:08.251Z,101452.38
2023-01-23T08:44:38.252Z,101447.13
2023-01-23T08:47:13.130Z,101445.09
2023-01-23T08:49:43.972Z,101434.56
2023-01-23T08:52:14.372Z,101440.66
2023-01-23T08:54:45.563Z,101428.06
2023-01-23T08:57:18.369Z,101436.66
2023-01-23T08:59:48.888Z,101422.44
2023-01-23T09:02:24.136Z,101414.72
2023-01-23T09:04:54.514Z,101415.13
2023-01-23T09:07:24.882Z,101417.13
2023-01-23T09:09:55.425Z,101411.84
2023-01-23T09:12:31.527Z,101409.78
2023-01-23T09:15:02.561Z,101411.75
2023-01-23T09:17:34.673Z,101406.00
2023-01-23T09:20:10.041Z,101409.16
2023-01-23T09:22:40.248Z,101409.94
2023-01-23T09:25:12.743Z,101405.00
2023-01-23T09:27:43.519Z,101396.34
2023-01-23T09:30:16.149Z,101395.47
2023-01-23T09:32:47.896Z,101394.56
2023-01-23T09:35:18.684Z,101382.31
2023-01-23T09:38:05.518Z,101379.44
2023-01-23T09:40:38.988Z,101385.00
2023-01-23T09:43:18.580Z,101381.72
2023-01-23T09:46:09.005Z,101378.44
2023-01-23T09:48:48.131Z,101377.53
2023-01-23T09:51:29.893Z,101368.94
2023-01-23T09:54:10.604Z,101373.31
2023-01-23T09:56:47.088Z,101366.72
2023-01-23T09:59:29.850Z,101363.81
2023-01-23T10:02:00.162Z,101361.25
2023-01-23T10:04:34.184Z,101360.38
2023-01-23T10:07:38.089Z,101357.81
2023-01-23T10:10:50.863Z,101346.75
2023-01-23T10:13:31.728Z,101352.28
2023-01-23T10:16:49.122Z,101347.28
2023-01-23T10:19:48.212Z,101340.59
2023-01-23T10:22:36.666Z,101337.19
2023-01-23T10:25:19.373Z,101338.19
2023-01-23T10:27:53.374Z,101330.72
2023-01-23T10:30:30.623Z,101330.63
2023-01-23T10:33:03.860Z,101338.56
2023-01-23T10:35:47.953Z,101326.69
2023-01-23T10:38:30.315Z,101326.94
2023-01-23T10:41:18.009Z,101322.34
2023-01-23T10:43:52.325Z,101321.78
2023-01-23T10:46:29.948Z,101326.09
2023-01-23T10:49:02.763Z,101318.66
2023-01-23T10:51:51.380Z,101318.94
2023-01-23T10:54:33.129Z,101318.34
2023-01-23T10:57:06.123Z,101323.06
2023-01-23T10:59:42.309Z,101310.78
2023-01-23T11:02:29.146Z,101309.47
2023-01-23T11:05:00.437Z,101306.13
2023-01-23T11:07:34.532Z,101314.88
2023-01-23T11:10:20.910Z,101309.53
2023-01-23T11:12:54.640Z,101303.72
2023-01-23T11:15:29.151Z,101300.38
2023-01-23T11:18:03.005Z,101299.84
2023-01-23T11:20:41.329Z,101301.34
2023-01-23T11:23:20.587Z,101302.47
2023-01-23T11:25:53.649Z,101294.31
2023-01-23T11:28:27.863Z,101297.88
2023-01-23T11:31:14.783Z,101297.78
2023-01-23T11:33:54.873Z,101297.28
2023-01-23T11:36:47.880Z,101296.75
2023-01-23T11:39:41.631Z,101286.53
2023-01-23T11:42:13.813Z,101294.47
2023-01-23T11:44:46.854Z,101295.94
2023-01-23T11:47:55.682Z,101292.50
2023-01-23T11:50:49.943Z,101292.72
2023-01-23T11:53:42.203Z,101303.03
2023-01-23T11:57:10.526Z,101289.47
2023-01-23T12:00:07.069Z,101284.84
2023-01-23T12:03:22.085Z,101287.47
2023-01-23T12:06:42.860Z,101284.91
2023-01-23T12:09:17.157Z,101282.00
2023-01-23T12:12:14.304Z,101279.09
2023-01-23T12:15:01.030Z,101276.22
2023-01-23T12:17:44.550Z,101287.38
2023-01-23T12:20:36.323Z,101283.66
2023-01-23T12:23:33.301Z,101283.91
2023-01-23T12:26:15.661Z,101279.03
2023-01-23T12:29:28.234Z,101281.38
2023-01-23T12:32:23.967Z,101273.66
2023-01-23T12:35:25.725Z,101282.81
2023-01-23T12:38:15.969Z,101280.38
2023-01-23T12:40:53.851Z,101281.09
2023-01-23T12:43:39.971Z,101283.47
2023-01-23T12:46:20.537Z,101283.03
2023-01-23T12:49:01.457Z,101280.19
2023-01-23T12:51:40.494Z,101289.84
2023-01-23T12:54:20.425Z,101289.00
2023-01-23T12:56:57.960Z,101287.72
2023-01-23T12:59:44.453Z,101290.09
2023-01-23T13:02:25.507Z,101289.28
2023-01-23T13:05:16.398Z,101297.75
2023-01-23T13:07:59.684Z,101303.75
2023-01-23T13:11:21.568Z,101302.91
2023-01-23T13:13:56.472Z,101300.47
2023-01-23T13:16:48.507Z,101300.47
2023-01-23T13:19:48.995Z,101295.16
2023-01-23T13:22:32.584Z,101293.88
2023-01-23T13:25:15.476Z,101289.06
2023-01-23T13:27:49.892Z,101293.53
2023-01-23T13:31:02.993Z,101297.16
2023-01-23T13:34:06.636Z,101294.72
2023-01-23T13:36:46.528Z,101298.72
2023-01-23T13:39:30.450Z,101295.88
2023-01-23T13:42:38.165Z,101297.06
2023-01-23T13:45:33.746Z,101296.97
2023-01-23T14:22:16.165Z,101320.50
2023-01-23T14:24:50.343Z,101317.69
2023-01-23T14:27:30.986Z,101323.31
2023-01-23T14:30:06.302Z,101325.66
2023-01-23T14:32:39.137Z,101326.84
2023-01-23T14:35:20.994Z,101320.03
2023-01-23T14:37:52.073Z,101321.22
2023-01-23T14:40:28.167Z,101322.06
2023-01-23T14:43:05.845Z,101326.84
2023-01-23T14:45:38.279Z,101324.03
2023-01-23T14:48:18.090Z,101324.88
2023-01-23T14:50:48.978Z,101335.28
2023-01-23T14:53:20.092Z,101330.50
2023-01-23T14:55:53.663Z,101326.84
2023-01-23T14:58:28.651Z,101328.03
2023-01-23T15:01:00.309Z,101329.56
2023-01-23T15:04:09.974Z,101331.56
2023-01-23T15:06:40.777Z,101333.09
2023-01-23T15:09:21.722Z,101329.47
2023-01-23T15:11:52.282Z,101335.81
2023-01-23T15:14:30.899Z,101332.19
2023-01-23T15:17:08.677Z,101337.81
2023-01-23T15:19:42.489Z,101344.94
2023-01-23T15:22:23.898Z,101339.69
2023-01-23T15:24:54.696Z,101350.16
2023-01-23T15:27:34.445Z,101350.47
2023-01-23T15:30:45.555Z,101344.72
2023-01-23T15:33:30.907Z,101345.88
2023-01-23T15:36:28.486Z,101352.25
2023-01-23T15:39:01.472Z,101357.41
2023-01-23T15:41:46.407Z,101354.59
2023-01-23T15:44:18.716Z,101364.22
2023-01-23T15:46:49.296Z,101366.56
2023-01-23T15:49:25.843Z,101368.56
2023-01-23T15:52:02.324Z,101361.28
2023-01-23T15:54:38.315Z,101359.19
2023-01-23T15:57:09.137Z,101369.97
2023-01-23T15:59:40.424Z,101371.97
2023-01-23T16:02:30.134Z,101373.16
2023-01-23T16:05:02.318Z,101375.03
2023-01-23T16:07:39.344Z,101371.75
2023-01-23T16:10:22.755Z,101360.84
2023-01-23T16:13:07.908Z,101369.66
2023-01-23T16:15:40.765Z,101374.81
2023-01-23T16:18:12.582Z,101374.31
2023-01-23T16:20:48.136Z,101372.34
2023-01-23T16:23:26.653Z,101371.88
2023-01-23T16:25:57.714Z,101371.41
2023-01-23T16:28:29.916Z,101371.78
2023-01-23T16:31:00.010Z,101374.09
2023-01-23T16:33:30.080Z,101379.25
2023-01-23T16:36:00.268Z,101380.44
2023-01-23T16:38:32.536Z,101368.69
2023-01-23T16:41:04.242Z,101372.72
2023-01-23T16:43:36.016Z,101370.22
2023-01-23T16:46:07.077Z,101379.84
2023-01-23T16:48:38.101Z,101381.00
2023-01-23T16:51:16.674Z,101376.91
2023-01-23T16:53:57.062Z,101385.72
2023-01-23T16:56:46.325Z,101380.44
2023-01-23T16:59:21.242Z,101381.97
2023-01-23T17:01:54.033Z,101390.75
2023-01-23T17:04:25.145Z,101389.13
2023-01-23T17:06:55.375Z,101394.25
2023-01-23T17:09:28.447Z,101395.44
2023-01-23T17:11:59.301Z,101397.81
2023-01-23T17:14:35.676Z,101392.47
2023-01-23T17:17:11.273Z,101392.00
2023-01-23T17:19:44.907Z,101405.25
2023-01-23T17:22:25.468Z,101392.72
2023-01-23T17:24:57.472Z,101402.31
2023-01-23T17:27:30.203Z,101401.84
2023-01-23T17:30:02.906Z,101408.63
2023-01-23T17:32:40.750Z,101410.66
2023-01-23T17:35:24.794Z,101410.97
2023-01-23T17:37:55.556Z,101410.50
2023-01-23T17:40:28.917Z,101410.84
2023-01-23T17:42:59.214Z,101413.66
2023-01-23T17:45:30.448Z,101416.84
2023-01-23T17:48:02.030Z,101410.75
2023-01-23T17:50:32.992Z,101409.09
2023-01-23T17:53:04.912Z,101413.06
2023-01-23T17:55:39.247Z,101402.19
2023-01-23T17:58:09.448Z,101408.13
2023-01-23T18:00:41.671Z,101414.13
2023-01-23T18:03:18.217Z,101407.22
2023-01-23T18:05:48.635Z,101411.19
2023-01-23T18:08:20.381Z,101407.91
2023-01-23T18:10:57.113Z,101405.44
2023-01-23T18:13:42.699Z,101408.94
2023-01-23T18:16:21.411Z,101415.72
2023-01-23T18:18:58.966Z,101420.06
2023-01-23T18:21:30.853Z,101416.78
2023-01-23T18:24:02.105Z,101417.94
2023-01-23T18:26:48.185Z,101422.28
2023-01-23T18:29:33.779Z,101429.75
2023-01-23T18:32:35.718Z,101427.28
2023-01-23T18:35:26.268Z,101428.81
2023-01-23T18:38:09.953Z,101426.69
2023-01-23T18:40:57.189Z,101435.47
2023-01-23T18:43:40.277Z,101422.59
2023-01-23T18:46:15.575Z,101427.72
2023-01-23T18:48:47.815Z,101436.50
2023-01-23T18:51:34.212Z,101438.47
2023-01-23T18:54:21.789Z,101447.28
2023-01-23T18:57:26.653Z,101446.78
2023-01-23T19:00:17.208Z,101435.38
2023-01-23T19:02:52.782Z,101441.38
2023-01-23T19:05:31.493Z,101439.72
2023-01-23T19:08:04.157Z,101438.44
2023-01-23T19:10:48.774Z,101433.13
2023-01-23T19:13:25.164Z,101446.38
2023-01-23T19:16:11.328Z,101440.28
2023-01-23T19:18:50.676Z,101445.06
2023-01-23T19:21:27.204Z,101442.59
2023-01-23T19:24:03.901Z,101449.38
2023-01-23T19:26:41.521Z,101446.91
2023-01-23T19:29:23.134Z,101451.25
2023-01-23T19:32:05.051Z,101451.13
2023-01-23T19:34:37.150Z,101455.41
2023-01-23T19:37:08.470Z,101450.50
2023-01-23T19:39:39.101Z,101451.31
2023-01-23T19:42:15.553Z,101451.66
2023-01-23T19:44:47.012Z,101447.53
2023-01-23T19:47:19.014Z,101457.47
2023-01-23T19:49:49.481Z,101457.81
2023-01-23T19:52:20.029Z,101462.94
2023-01-23T19:54:50.416Z,101456.03
2023-01-23T19:57:21.123Z,101454.38
2023-01-23T19:59:51.129Z,101462.31
2023-01-23T20:02:25.566Z,101464.31
2023-01-23T20:04:57.999Z,101463.84
2023-01-23T20:07:28.398Z,101466.66
2023-01-23T20:09:58.957Z,101461.38
2023-01-23T20:12:29.355Z,101471.78
2023-01-23T20:15:00.007Z,101466.50
2023-01-23T20:17:32.348Z,101466.03
2023-01-23T20:20:03.242Z,101460.75
2023-01-23T20:22:33.873Z,101454.97
2023-01-23T20:25:04.375Z,101456.16
2023-01-23T20:27:34.864Z,101459.66
2023-01-23T20:30:05.195Z,101449.94
2023-01-23T20:32:38.480Z,101449.09
2023-01-23T20:35:09.332Z,101457.88
2023-01-23T20:37:40.013Z,101455.38
2023-01-23T20:40:11.986Z,101457.72
2023-01-23T20:42:42.207Z,101456.06
2023-01-23T20:45:13.224Z,101466.47
2023-01-23T20:47:45.562Z,101462.00
2023-01-23T20:50:16.589Z,101461.53
2023-01-23T20:53:03.571Z,101459.88
2023-01-23T20:55:34.049Z,101462.19
2023-01-23T20:58:20.865Z,101458.91
2023-01-23T21:00:51.481Z,101459.25
2023-01-23T21:03:23.472Z,101453.94
2023-01-23T21:05:53.643Z,101455.94
2023-01-23T21:08:24.324Z,101458.75
2023-01-23T21:10:54.873Z,101455.16
2023-01-23T21:13:24.751Z,101450.69
2023-01-23T21:16:06.183Z,101453.81
2023-01-23T21:18:41.679Z,101446.91
2023-01-23T21:21:14.305Z,101441.63
2023-01-23T21:23:47.103Z,101445.59
2023-01-23T21:26:18.371Z,101447.91
2023-01-23T21:28:50.800Z,101454.69
2023-01-23T21:31:25.107Z,101452.22
2023-01-23T21:34:00.938Z,101454.19
2023-01-23T21:36:32.079Z,101455.34
2023-01-23T21:39:02.516Z,101453.75
2023-01-23T21:41:32.960Z,101454.56
2023-01-23T21:44:03.545Z,101446.47
2023-01-23T21:46:33.698Z,101456.88
2023-01-23T21:49:05.843Z,101458.84
2023-01-23T21:51:36.145Z,101454.72
2023-01-23T21:54:06.305Z,101455.91
2023-01-23T21:56:36.812Z,101454.25
2023-01-23T21:59:07.318Z,101455.06
2023-01-23T22:01:36.914Z,101452.63
2023-01-23T22:04:11.568Z,101447.81
2023-01-23T22:06:44.252Z,101444.19
2023-01-23T22:09:18.791Z,101448.97
2023-01-23T22:11:50.772Z,101444.50
2023-01-23T22:14:21.840Z,101445.72
2023-01-23T22:16:53.612Z,101446.03
2023-01-23T22:19:26.342Z,101448.03
2023-01-23T22:21:57.532Z,101448.34
2023-01-23T22:24:28.522Z,101442.72
2023-01-23T22:26:59.065Z,101446.69
2023-01-23T22:29:29.360Z,101449.50
2023-01-23T22:31:59.448Z,101446.22
2023-01-23T22:34:32.301Z,101444.22
2023-01-23T22:37:02.912Z,101439.78
2023-01-23T22:39:33.832Z,101438.97
2023-01-23T22:42:05.100Z,101444.91
2023-01-23T22:44:35.864Z,101441.63
2023-01-23T22:47:06.450Z,101436.03
2023-01-23T22:49:38.285Z,101443.09
2023-01-23T22:52:09.449Z,101444.25
2023-01-23T22:54:39.840Z,101444.59
2023-01-23T22:57:10.229Z,101442.97
2023-01-23T22:59:40.303Z,101441.31
2023-01-23T23:02:19.365Z,101438.84
2023-01-23T23:04:52.159Z,101443.97
2023-01-23T23:07:22.132Z,101437.56
2023-01-23T23:09:52.497Z,101439.53
2023-01-23T23:12:22.602Z,101433.09
2023-01-23T23:14:52.475Z,101437.88
2023-01-23T23:17:23.129Z,101433.44
2023-01-23T23:19:55.399Z,101433.75
2023-01-23T23:22:26.050Z,101443.34
2023-01-23T23:24:56.324Z,101446.13
2023-01-23T23:27:26.579Z,101435.28
2023-01-23T23:29:57.495Z,101442.03
2023-01-23T23:32:29.394Z,101433.13
2023-01-23T23:35:01.841Z,101447.16
2023-01-23T23:37:31.862Z,101441.88
2023-01-23T23:40:02.234Z,101454.59
2023-01-23T23:42:32.382Z,101460.84
2023-01-23T23:45:02.343Z,101463.50
2023-01-23T23:47:32.347Z,101455.75
2023-01-23T23:50:05.280Z,101451.28
2023-01-23T23:52:36.755Z,101452.44
2023-01-23T23:55:07.958Z,101455.25
2023-01-23T23:57:38.203Z,101454.44
